Terminal Aerodrome Forecast
Issued by NWS

Home | Current Version | Previous Version | Text Only | Print | Product List | Glossary On
Versions: 1 2 3 4 5 6 7 8 9 10 11 12 13 14
000
FTUS42 KTBW 261735
TAFRSW
TAF
KRSW 261735Z 2618/2718 07010G15KT P6SM SCT060
     FM270100 08009KT P6SM FEW250
     FM270600 04005KT P6SM FEW250
     FM271400 08007KT P6SM FEW050=

USA.gov is the U.S. government's official web portal to all federal, state and local government web resources and services.